createdAt,value
2018-12-19T00:00:54.438Z,6.12
2018-12-19T00:01:54.413Z,6.15
2018-12-19T00:02:54.385Z,6.16
2018-12-19T00:03:54.361Z,6.17
2018-12-19T00:04:54.339Z,6.12
2018-12-19T00:05:54.312Z,6.15
2018-12-19T00:06:54.286Z,6.17
2018-12-19T00:07:54.260Z,6.12
2018-12-19T00:08:54.253Z,6.22
2018-12-19T00:09:54.212Z,6.17
2018-12-19T00:10:54.198Z,6.16
2018-12-19T00:11:54.159Z,6.16
2018-12-19T00:12:54.133Z,6.28
2018-12-19T00:13:54.107Z,6.19
2018-12-19T00:14:54.083Z,6.19
2018-12-19T00:15:54.058Z,6.25
2018-12-19T00:16:54.032Z,6.29
2018-12-19T00:17:54.007Z,6.19
2018-12-19T00:18:53.981Z,6.19
2018-12-19T00:19:53.955Z,6.16
2018-12-19T00:20:53.932Z,6.28
2018-12-19T00:21:53.908Z,6.19
2018-12-19T00:22:53.880Z,6.29
2018-12-19T00:23:53.855Z,6.20
2018-12-19T00:24:53.829Z,6.26
2018-12-19T00:25:53.807Z,6.28
2018-12-19T00:26:53.788Z,6.29
2018-12-19T00:27:53.762Z,6.35
2018-12-19T00:28:53.729Z,6.32
2018-12-19T00:29:53.704Z,6.39
2018-12-19T00:30:53.681Z,6.32
2018-12-19T00:31:53.652Z,6.34
2018-12-19T00:32:53.628Z,6.34
2018-12-19T00:33:53.603Z,6.46
2018-12-19T00:34:53.577Z,6.39
2018-12-19T00:35:53.552Z,6.41
2018-12-19T00:36:53.527Z,6.39
2018-12-19T00:37:53.502Z,6.41
2018-12-19T00:38:53.477Z,6.36
2018-12-19T00:39:53.451Z,6.38
2018-12-19T00:40:53.425Z,6.44
2018-12-19T00:41:53.402Z,6.49
2018-12-19T00:42:53.378Z,6.46
2018-12-19T00:43:53.350Z,6.43
2018-12-19T00:44:53.325Z,6.44
2018-12-19T00:45:53.301Z,6.47
2018-12-19T00:46:53.279Z,6.49
2018-12-19T00:47:53.252Z,6.44
2018-12-19T00:48:53.252Z,6.46
2018-12-19T00:49:53.199Z,6.52
2018-12-19T00:50:53.176Z,6.53
2018-12-19T00:51:53.151Z,6.44
2018-12-19T00:52:53.124Z,6.49
2018-12-19T00:53:53.099Z,6.54
2018-12-19T00:54:53.073Z,6.54
2018-12-19T00:55:53.051Z,6.46
2018-12-19T00:56:53.032Z,6.56
2018-12-19T00:57:52.998Z,6.59
2018-12-19T00:58:52.973Z,6.57
2018-12-19T00:59:52.947Z,6.54
2018-12-19T01:00:52.924Z,6.53
2018-12-19T01:01:52.896Z,6.57
2018-12-19T01:02:52.871Z,6.50
2018-12-19T01:03:52.848Z,6.62
2018-12-19T01:04:52.823Z,6.59
2018-12-19T01:05:52.796Z,6.52
2018-12-19T01:06:52.771Z,6.53
2018-12-19T01:07:52.751Z,6.57
2018-12-19T01:08:52.725Z,6.59
2018-12-19T01:09:52.714Z,6.62
2018-12-19T01:10:52.669Z,6.62
2018-12-19T01:11:52.646Z,6.57
2018-12-19T01:12:52.622Z,6.56
2018-12-19T01:13:52.595Z,6.52
2018-12-19T01:14:52.571Z,6.50
2018-12-19T01:15:52.545Z,6.59
2018-12-19T01:16:52.519Z,6.57
2018-12-19T01:17:52.493Z,6.57
2018-12-19T01:18:52.469Z,6.49
2018-12-19T01:19:52.445Z,6.62
2018-12-19T01:20:52.419Z,6.56
2018-12-19T01:21:52.415Z,6.50
2018-12-19T01:22:52.371Z,6.56
2018-12-19T01:23:52.379Z,6.50
2018-12-19T01:24:52.317Z,6.53
2018-12-19T01:25:52.382Z,6.49
2018-12-19T01:26:52.269Z,6.49
2018-12-19T01:27:52.269Z,6.56
2018-12-19T01:28:52.217Z,6.57
2018-12-19T01:29:52.192Z,6.57
2018-12-19T01:30:52.166Z,6.46
2018-12-19T01:31:52.146Z,6.54
2018-12-19T01:32:52.118Z,6.49
2018-12-19T01:33:52.158Z,6.50
2018-12-19T01:34:52.065Z,6.54
2018-12-19T01:35:52.041Z,6.56
2018-12-19T01:36:52.016Z,6.54
2018-12-19T01:37:51.990Z,6.57
2018-12-19T01:38:51.967Z,6.49
2018-12-19T01:39:51.939Z,6.59
2018-12-19T01:40:51.914Z,6.57
2018-12-19T01:41:51.889Z,6.49
2018-12-19T01:42:51.864Z,6.49
2018-12-19T01:43:51.839Z,6.54
2018-12-19T01:44:51.815Z,6.56
2018-12-19T01:45:51.790Z,6.50
2018-12-19T01:46:51.762Z,6.49
2018-12-19T01:47:51.738Z,6.49
2018-12-19T01:48:51.712Z,6.47
2018-12-19T01:49:51.689Z,6.50
2018-12-19T01:50:51.665Z,6.49
2018-12-19T01:51:51.641Z,6.49
2018-12-19T01:52:51.613Z,6.52
2018-12-19T01:53:51.587Z,6.49
2018-12-19T01:54:51.562Z,6.52
2018-12-19T01:55:51.537Z,6.54
2018-12-19T01:56:51.517Z,6.52
2018-12-19T01:57:51.489Z,6.50
2018-12-19T01:58:51.463Z,6.54
2018-12-19T01:59:51.438Z,6.49
2018-12-19T02:00:51.412Z,6.50
2018-12-19T02:01:51.390Z,6.44
2018-12-19T02:02:51.360Z,6.44
2018-12-19T02:03:51.336Z,6.52
2018-12-19T02:04:51.315Z,6.50
2018-12-19T02:05:51.286Z,6.57
2018-12-19T02:06:51.264Z,6.57
2018-12-19T02:07:51.236Z,6.47
2018-12-19T02:08:51.215Z,6.56
2018-12-19T02:09:51.214Z,6.53
2018-12-19T02:10:51.162Z,6.50
2018-12-19T02:11:51.136Z,6.57
2018-12-19T02:12:51.111Z,6.50
2018-12-19T02:13:51.086Z,6.54
2018-12-19T02:14:51.060Z,6.50
2018-12-19T02:15:51.036Z,6.53
2018-12-19T02:16:51.012Z,6.60
2018-12-19T02:17:50.989Z,6.57
2018-12-19T02:18:50.960Z,6.47
2018-12-19T02:19:50.955Z,6.54
2018-12-19T02:20:50.908Z,6.52
2018-12-19T02:21:50.891Z,6.47
2018-12-19T02:22:50.858Z,6.53
2018-12-19T02:23:50.833Z,6.53
2018-12-19T02:24:50.808Z,6.54
2018-12-19T02:25:50.793Z,6.47
2018-12-19T02:26:50.759Z,6.52
2018-12-19T02:27:50.734Z,6.44
2018-12-19T02:28:50.708Z,6.49
2018-12-19T02:29:50.687Z,6.52
2018-12-19T02:30:50.658Z,6.57
2018-12-19T02:31:50.635Z,6.54
2018-12-19T02:32:50.608Z,6.54
2018-12-19T02:33:50.586Z,6.47
2018-12-19T02:34:50.559Z,6.47
2018-12-19T02:35:50.532Z,6.46
2018-12-19T02:36:50.511Z,6.49
2018-12-19T02:37:50.485Z,6.50
2018-12-19T02:38:50.457Z,6.47
2018-12-19T02:39:50.433Z,6.41
2018-12-19T02:40:50.406Z,6.41
2018-12-19T02:41:50.382Z,6.43
2018-12-19T02:42:50.358Z,6.41
2018-12-19T02:43:50.331Z,6.43
2018-12-19T02:44:50.307Z,6.47
2018-12-19T02:45:50.285Z,6.38
2018-12-19T02:46:50.258Z,6.39
2018-12-19T02:47:50.252Z,6.44
2018-12-19T02:48:50.208Z,6.39
2018-12-19T02:49:50.194Z,6.41
2018-12-19T02:50:50.155Z,6.34
2018-12-19T02:51:50.131Z,6.53
2018-12-19T02:52:50.106Z,6.36
2018-12-19T02:53:50.082Z,6.50
2018-12-19T02:54:50.057Z,6.47
2018-12-19T02:55:50.035Z,6.47
2018-12-19T02:56:50.006Z,6.46
2018-12-19T02:57:49.983Z,6.49
2018-12-19T02:58:49.956Z,6.49
2018-12-19T02:59:49.932Z,6.56
2018-12-19T03:00:49.908Z,6.56
2018-12-19T03:01:49.886Z,6.47
2018-12-19T03:02:49.855Z,6.59
2018-12-19T03:03:49.830Z,6.56
2018-12-19T03:04:49.805Z,6.53
2018-12-19T03:05:49.781Z,6.59
2018-12-19T03:06:49.755Z,6.64
2018-12-19T03:07:49.732Z,6.64
2018-12-19T03:08:49.706Z,6.67
2018-12-19T03:09:49.687Z,6.67
2018-12-19T03:10:49.655Z,6.67
2018-12-19T03:11:49.631Z,6.68
2018-12-19T03:12:49.608Z,6.70
2018-12-19T03:13:49.585Z,6.71
2018-12-19T03:14:49.557Z,6.80
2018-12-19T03:15:49.532Z,6.86
2018-12-19T03:16:49.507Z,6.87
2018-12-19T03:17:49.482Z,6.95
2018-12-19T03:18:49.461Z,7.03
2018-12-19T03:19:49.433Z,7.11
2018-12-19T03:20:49.410Z,7.08
2018-12-19T03:21:49.384Z,7.23
2018-12-19T03:22:49.360Z,7.23
2018-12-19T03:23:49.332Z,7.18
2018-12-19T03:24:49.307Z,7.22
2018-12-19T03:25:49.282Z,7.14
2018-12-19T03:26:49.258Z,7.15
2018-12-19T03:27:49.231Z,7.23
2018-12-19T03:28:49.206Z,7.13
2018-12-19T03:29:49.183Z,7.14
2018-12-19T03:30:49.158Z,7.19
2018-12-19T03:31:49.259Z,7.19
2018-12-19T03:32:49.109Z,7.21
2018-12-19T03:33:49.142Z,7.22
2018-12-19T03:34:49.060Z,7.23
2018-12-19T03:35:49.044Z,7.21
2018-12-19T03:36:49.008Z,7.21
2018-12-19T03:37:48.984Z,7.23
2018-12-19T03:38:48.958Z,7.21
2018-12-19T03:39:50.319Z,7.22
2018-12-19T03:40:48.909Z,7.19
2018-12-19T03:41:48.887Z,7.21
2018-12-19T03:42:48.859Z,7.21
2018-12-19T03:43:48.842Z,7.23
2018-12-19T03:44:48.816Z,7.21
2018-12-19T03:45:48.785Z,7.18
2018-12-19T03:46:48.759Z,7.22
2018-12-19T03:47:48.737Z,7.25
2018-12-19T03:48:48.710Z,7.22
2018-12-19T03:49:48.686Z,7.18
2018-12-19T03:50:48.662Z,7.19
2018-12-19T03:51:48.635Z,7.18
2018-12-19T03:52:48.614Z,7.21
2018-12-19T03:53:48.587Z,7.19
2018-12-19T03:54:48.572Z,7.21
2018-12-19T03:55:48.542Z,7.18
2018-12-19T03:56:48.515Z,7.22
2018-12-19T03:57:48.492Z,7.22
2018-12-19T03:58:48.467Z,7.18
2018-12-19T03:59:48.445Z,7.21
2018-12-19T04:00:48.415Z,7.18
2018-12-19T04:01:48.389Z,7.25
2018-12-19T04:02:48.364Z,7.23
2018-12-19T04:03:48.348Z,7.22
2018-12-19T04:04:48.319Z,7.19
2018-12-19T04:05:48.294Z,7.23
2018-12-19T04:06:48.267Z,7.21
2018-12-19T04:07:48.242Z,7.19
2018-12-19T04:08:48.219Z,7.21
2018-12-19T04:09:48.195Z,7.23
2018-12-19T04:10:48.168Z,7.22
2018-12-19T04:11:48.167Z,7.18
2018-12-19T04:12:48.120Z,7.19
2018-12-19T04:13:48.099Z,7.22
2018-12-19T04:14:48.071Z,7.18
2018-12-19T04:15:48.049Z,7.25
2018-12-19T04:16:48.021Z,7.19
2018-12-19T04:17:47.999Z,7.19
2018-12-19T04:18:47.974Z,7.18
2018-12-19T04:19:47.947Z,7.22
2018-12-19T04:20:47.925Z,7.26
2018-12-19T04:21:47.901Z,7.23
2018-12-19T04:22:47.875Z,7.26
2018-12-19T04:23:47.851Z,7.21
2018-12-19T04:24:47.826Z,7.22
2018-12-19T04:25:47.802Z,7.25
2018-12-19T04:26:47.776Z,7.26
2018-12-19T04:27:47.751Z,7.26
2018-12-19T04:28:47.728Z,7.29
2018-12-19T04:29:47.703Z,7.26
2018-12-19T04:30:47.680Z,7.26
2018-12-19T04:31:47.653Z,7.29
2018-12-19T04:32:47.630Z,7.29
2018-12-19T04:33:47.607Z,7.25
2018-12-19T04:34:47.592Z,7.25
2018-12-19T04:35:47.557Z,7.29
2018-12-19T04:36:47.532Z,7.39
2018-12-19T04:37:47.509Z,7.26
2018-12-19T04:38:47.481Z,7.31
2018-12-19T04:39:47.459Z,7.32
2018-12-19T04:40:47.436Z,7.33
2018-12-19T04:41:47.408Z,7.32
2018-12-19T04:42:47.383Z,7.26
2018-12-19T04:43:47.361Z,7.36
2018-12-19T04:44:47.335Z,7.28
2018-12-19T04:45:47.315Z,7.31
2018-12-19T04:46:47.286Z,7.40
2018-12-19T04:47:47.264Z,7.26
2018-12-19T04:48:47.237Z,7.29
2018-12-19T04:49:47.215Z,7.31
2018-12-19T04:50:47.198Z,7.37
2018-12-19T04:51:47.163Z,7.32
2018-12-19T04:52:47.139Z,7.29
2018-12-19T04:53:47.118Z,7.33
2018-12-19T04:54:47.090Z,7.37
2018-12-19T04:55:47.067Z,7.33
2018-12-19T04:56:47.042Z,7.28
2018-12-19T04:57:47.017Z,7.31
2018-12-19T04:58:46.998Z,7.28
2018-12-19T04:59:46.971Z,7.29
2018-12-19T05:00:46.946Z,7.26
2018-12-19T05:01:46.919Z,7.28
2018-12-19T05:02:46.894Z,7.31
2018-12-19T05:03:46.869Z,7.29
2018-12-19T05:04:46.847Z,7.31
2018-12-19T05:05:46.820Z,7.31
2018-12-19T05:06:46.799Z,7.26
2018-12-19T05:07:46.773Z,7.25
2018-12-19T05:08:46.753Z,7.23
2018-12-19T05:09:46.723Z,7.21
2018-12-19T05:10:46.699Z,7.29
2018-12-19T05:11:46.673Z,7.22
2018-12-19T05:12:46.650Z,7.18
2018-12-19T05:13:46.625Z,7.26
2018-12-19T05:14:46.600Z,7.14
2018-12-19T05:15:46.581Z,7.19
2018-12-19T05:16:46.552Z,7.13
2018-12-19T05:17:46.529Z,7.14
2018-12-19T05:18:46.502Z,7.10
2018-12-19T05:19:46.479Z,7.13
2018-12-19T05:20:46.452Z,7.08
2018-12-19T05:21:46.431Z,7.10
2018-12-19T05:22:46.404Z,7.10
2018-12-19T05:23:46.381Z,7.13
2018-12-19T05:24:46.355Z,7.10
2018-12-19T05:25:46.336Z,7.08
2018-12-19T05:26:46.307Z,7.11
2018-12-19T05:27:46.285Z,7.08
2018-12-19T05:28:46.257Z,7.08
2018-12-19T05:29:46.233Z,7.07
2018-12-19T05:30:46.209Z,7.07
2018-12-19T05:31:46.183Z,7.04
2018-12-19T05:32:46.160Z,7.10
2018-12-19T05:33:46.139Z,7.07
2018-12-19T05:34:46.112Z,7.05
2018-12-19T05:35:46.088Z,7.08
2018-12-19T05:36:46.065Z,7.05
2018-12-19T05:37:46.039Z,7.08
2018-12-19T05:38:46.013Z,7.07
2018-12-19T05:39:45.990Z,7.08
2018-12-19T05:40:45.965Z,7.05
2018-12-19T05:41:45.942Z,7.07
2018-12-19T05:42:45.918Z,7.11
2018-12-19T05:43:45.892Z,7.11
2018-12-19T05:44:45.868Z,7.07
2018-12-19T05:45:45.851Z,7.08
2018-12-19T05:46:45.818Z,7.11
2018-12-19T05:47:45.799Z,7.07
2018-12-19T05:48:45.768Z,7.05
2018-12-19T05:49:45.745Z,7.10
2018-12-19T05:50:45.721Z,7.13
2018-12-19T05:51:45.696Z,7.13
2018-12-19T05:52:45.674Z,7.15
2018-12-19T05:53:45.647Z,7.25
2018-12-19T05:54:45.622Z,7.23
2018-12-19T05:55:45.597Z,7.21
2018-12-19T05:56:45.573Z,7.21
2018-12-19T05:57:45.550Z,7.26
2018-12-19T05:58:45.523Z,7.23
2018-12-19T05:59:45.500Z,7.28
2018-12-19T06:00:45.477Z,7.21
2018-12-19T06:01:45.451Z,7.25
2018-12-19T06:02:45.429Z,7.28
2018-12-19T06:03:45.401Z,7.33
2018-12-19T06:04:45.377Z,7.28
2018-12-19T06:05:45.353Z,7.32
2018-12-19T06:06:45.327Z,7.33
2018-12-19T06:07:45.305Z,7.32
2018-12-19T06:08:45.278Z,7.31
2018-12-19T06:09:45.255Z,7.32
2018-12-19T06:10:45.229Z,7.39
2018-12-19T06:11:45.205Z,7.37
2018-12-19T06:12:45.180Z,7.41
2018-12-19T06:13:45.155Z,7.40
2018-12-19T06:14:45.131Z,7.47
2018-12-19T06:15:45.106Z,7.51
2018-12-19T06:16:45.082Z,7.58
2018-12-19T06:17:45.057Z,7.46
2018-12-19T06:18:45.029Z,7.61
2018-12-19T06:19:45.006Z,7.59
2018-12-19T06:20:44.990Z,7.66
2018-12-19T06:21:44.957Z,7.62
2018-12-19T06:22:44.933Z,7.61
2018-12-19T06:23:44.919Z,7.58
2018-12-19T06:24:44.883Z,7.62
2018-12-19T06:25:44.857Z,7.59
2018-12-19T06:26:44.833Z,7.64
2018-12-19T06:27:44.810Z,7.61
2018-12-19T06:28:44.784Z,7.66
2018-12-19T06:29:44.760Z,7.66
2018-12-19T06:30:44.736Z,7.66
2018-12-19T06:31:44.710Z,7.69
2018-12-19T06:32:44.688Z,7.62
2018-12-19T06:33:44.666Z,7.69
2018-12-19T06:34:44.635Z,7.74
2018-12-19T06:35:44.610Z,7.64
2018-12-19T06:36:44.586Z,7.66
2018-12-19T06:37:44.573Z,7.67
2018-12-19T06:38:44.536Z,7.66
2018-12-19T06:39:44.513Z,7.62
2018-12-19T06:40:44.486Z,7.66
2018-12-19T06:41:44.466Z,7.64
2018-12-19T06:42:44.436Z,7.61
2018-12-19T06:43:44.412Z,7.69
2018-12-19T06:44:44.388Z,7.58
2018-12-19T06:45:44.364Z,7.58
2018-12-19T06:46:44.339Z,7.75
2018-12-19T06:47:44.314Z,7.75
2018-12-19T06:48:44.294Z,7.75
2018-12-19T06:49:44.273Z,7.70
2018-12-19T06:50:44.250Z,7.69
2018-12-19T06:51:44.215Z,7.70
2018-12-19T06:52:44.190Z,7.66
2018-12-19T06:53:44.167Z,7.66
2018-12-19T06:54:44.142Z,7.83
2018-12-19T06:55:44.117Z,7.77
2018-12-19T06:56:44.092Z,7.77
2018-12-19T06:57:44.067Z,7.72
2018-12-19T06:58:44.043Z,7.72
2018-12-19T06:59:44.017Z,7.75
2018-12-19T07:00:43.993Z,7.67
2018-12-19T07:01:43.969Z,7.74
2018-12-19T07:02:43.943Z,7.74
2018-12-19T07:03:43.919Z,7.69
2018-12-19T07:04:43.895Z,7.69
2018-12-19T07:05:43.869Z,7.66
2018-12-19T07:06:43.847Z,7.78
2018-12-19T07:07:43.821Z,7.67
2018-12-19T07:08:43.798Z,7.72
2018-12-19T07:09:43.778Z,7.70
2018-12-19T07:10:43.744Z,7.67
2018-12-19T07:11:43.719Z,7.66
2018-12-19T07:12:43.699Z,7.72
2018-12-19T07:13:43.672Z,7.83
2018-12-19T07:14:43.649Z,7.80
2018-12-19T07:15:43.622Z,7.75
2018-12-19T07:16:43.731Z,7.56
2018-12-19T07:17:43.572Z,7.67
2018-12-19T07:18:43.548Z,7.64
2018-12-19T07:19:43.537Z,7.67
2018-12-19T07:20:43.498Z,7.62
2018-12-19T07:21:43.473Z,7.61
2018-12-19T07:22:43.450Z,7.61
2018-12-19T07:23:43.424Z,7.58
2018-12-19T07:24:43.398Z,7.59
2018-12-19T07:25:43.375Z,7.58
2018-12-19T07:26:43.348Z,7.53
2018-12-19T07:27:43.326Z,7.58
2018-12-19T07:28:43.302Z,7.58
2018-12-19T07:29:43.275Z,7.59
2018-12-19T07:30:43.250Z,7.61
2018-12-19T07:31:43.243Z,7.53
2018-12-19T07:32:43.201Z,7.56
2018-12-19T07:33:43.200Z,7.61
2018-12-19T07:34:44.298Z,7.48
2018-12-19T07:35:43.134Z,7.48
2018-12-19T07:36:43.101Z,7.50
2018-12-19T07:37:43.076Z,7.59
2018-12-19T07:38:43.051Z,7.58
2018-12-19T07:39:43.027Z,7.58
2018-12-19T07:40:45.806Z,7.48
2018-12-19T07:41:42.977Z,7.62
2018-12-19T07:42:42.952Z,7.48
2018-12-19T07:43:42.929Z,7.50
2018-12-19T07:44:42.904Z,7.47
2018-12-19T07:45:42.879Z,7.46
2018-12-19T07:46:42.853Z,7.55
2018-12-19T07:47:42.831Z,7.48
2018-12-19T07:48:42.805Z,7.43
2018-12-19T07:49:42.780Z,7.44
2018-12-19T07:50:42.754Z,7.47
2018-12-19T07:51:42.729Z,7.41
2018-12-19T07:52:42.706Z,7.44
2018-12-19T07:53:42.682Z,7.44
2018-12-19T07:54:42.656Z,7.44
2018-12-19T07:55:42.631Z,7.43
2018-12-19T07:56:42.607Z,7.39
2018-12-19T07:57:42.580Z,7.46
2018-12-19T07:58:42.556Z,7.41
2018-12-19T07:59:42.591Z,7.40
2018-12-19T08:00:42.509Z,7.43
2018-12-19T08:01:42.484Z,7.39
2018-12-19T08:02:42.457Z,7.41
2018-12-19T08:03:42.432Z,7.43
2018-12-19T08:04:42.408Z,7.47
2018-12-19T08:05:42.403Z,7.43
2018-12-19T08:06:42.358Z,7.43
2018-12-19T08:07:42.334Z,7.41
2018-12-19T08:08:42.308Z,7.39
2018-12-19T08:09:42.284Z,7.40
2018-12-19T08:10:42.258Z,7.44
2018-12-19T08:11:42.233Z,7.41
2018-12-19T08:12:42.208Z,7.40
2018-12-19T08:13:42.191Z,7.40
2018-12-19T08:14:42.159Z,7.43
2018-12-19T08:15:42.133Z,7.43
2018-12-19T08:16:42.110Z,7.41
2018-12-19T08:17:42.084Z,7.46
2018-12-19T08:18:42.060Z,7.37
2018-12-19T08:19:42.035Z,7.43
2018-12-19T08:20:42.009Z,7.39
2018-12-19T08:21:41.985Z,7.46
2018-12-19T08:22:41.960Z,7.43
2018-12-19T08:23:41.936Z,7.41
2018-12-19T08:24:41.916Z,7.37
2018-12-19T08:25:41.886Z,7.44
2018-12-19T08:26:41.863Z,7.40
2018-12-19T08:27:41.839Z,7.33
2018-12-19T08:28:41.813Z,7.43
2018-12-19T08:29:41.787Z,7.43
2018-12-19T08:30:41.761Z,7.44
2018-12-19T08:31:41.735Z,7.43
2018-12-19T08:32:41.712Z,7.44
2018-12-19T08:33:41.687Z,7.39
2018-12-19T08:34:41.661Z,7.44
2018-12-19T08:35:41.639Z,7.33
2018-12-19T08:36:41.611Z,7.44
2018-12-19T08:37:41.588Z,7.43
2018-12-19T08:38:41.563Z,7.40
2018-12-19T08:39:41.538Z,7.43
2018-12-19T08:40:41.513Z,7.44
2018-12-19T08:41:41.488Z,7.46
2018-12-19T08:42:41.464Z,7.43
2018-12-19T08:43:41.437Z,7.43
2018-12-19T08:44:41.425Z,7.43
2018-12-19T08:45:41.388Z,7.41
2018-12-19T08:46:41.362Z,7.44
2018-12-19T08:47:41.338Z,7.44
2018-12-19T08:48:41.314Z,7.43
2018-12-19T08:49:41.288Z,7.43
2018-12-19T08:50:41.263Z,7.44
2018-12-19T08:51:41.239Z,7.39
2018-12-19T08:52:41.214Z,7.43
2018-12-19T08:53:41.190Z,7.40
2018-12-19T08:54:41.162Z,7.40
2018-12-19T08:55:41.138Z,7.46
2018-12-19T08:56:41.120Z,7.40
2018-12-19T08:57:41.093Z,7.44
2018-12-19T08:58:41.070Z,7.43
2018-12-19T08:59:41.040Z,7.44
2018-12-19T09:00:41.022Z,7.41
2018-12-19T09:01:40.990Z,7.44
2018-12-19T09:02:40.964Z,7.43
2018-12-19T09:03:40.939Z,7.39
2018-12-19T09:04:40.913Z,7.39
2018-12-19T09:05:41.618Z,7.48
2018-12-19T09:06:40.868Z,7.44
2018-12-19T09:07:40.842Z,7.47
2018-12-19T09:08:40.817Z,7.40
2018-12-19T09:09:40.793Z,7.46
2018-12-19T09:10:40.768Z,7.47
2018-12-19T09:11:40.740Z,7.44
2018-12-19T09:12:40.717Z,7.47
2018-12-19T09:13:40.693Z,7.51
2018-12-19T09:14:40.667Z,7.48
2018-12-19T09:15:40.642Z,7.43
2018-12-19T09:16:40.617Z,7.41
2018-12-19T09:17:40.593Z,7.43
2018-12-19T09:18:40.568Z,7.47
2018-12-19T09:19:40.545Z,7.50
2018-12-19T09:20:40.521Z,7.47
2018-12-19T09:21:40.494Z,7.51
2018-12-19T09:22:40.470Z,7.50
2018-12-19T09:23:40.444Z,7.46
2018-12-19T09:24:40.420Z,7.55
2018-12-19T09:25:40.394Z,7.61
2018-12-19T09:26:40.370Z,7.61
2018-12-19T09:27:40.344Z,7.59
2018-12-19T09:28:40.320Z,7.59
2018-12-19T09:29:40.299Z,7.66
2018-12-19T09:30:40.273Z,7.70
2018-12-19T09:31:40.248Z,7.64
2018-12-19T09:32:40.223Z,7.64
2018-12-19T09:33:40.201Z,7.75
2018-12-19T09:34:40.174Z,7.62
2018-12-19T09:35:40.148Z,7.67
2018-12-19T09:36:40.124Z,7.81
2018-12-19T09:37:40.099Z,7.72
2018-12-19T09:38:41.001Z,7.74
2018-12-19T09:39:40.051Z,7.69
2018-12-19T09:40:40.029Z,7.69
2018-12-19T09:41:40.001Z,7.70
2018-12-19T09:42:39.976Z,7.77
2018-12-19T09:43:39.952Z,7.81
2018-12-19T09:44:39.928Z,7.75
2018-12-19T09:45:39.905Z,7.78
2018-12-19T09:46:39.880Z,7.81
2018-12-19T09:47:39.856Z,7.77
2018-12-19T09:48:39.831Z,7.80
2018-12-19T09:49:39.804Z,7.87
2018-12-19T09:50:39.779Z,7.87
2018-12-19T09:51:39.759Z,7.90
2018-12-19T09:52:39.731Z,7.85
2018-12-19T09:53:39.711Z,7.95
2018-12-19T09:54:39.683Z,7.90
2018-12-19T09:55:39.657Z,7.91
2018-12-19T09:56:39.633Z,7.93
2018-12-19T09:57:39.612Z,8.01
2018-12-19T09:58:39.583Z,7.99
2018-12-19T09:59:39.559Z,8.06
2018-12-19T10:00:39.536Z,8.09
2018-12-19T10:01:39.512Z,8.08
2018-12-19T10:02:39.844Z,8.13
2018-12-19T10:03:39.463Z,8.18
2018-12-19T10:04:39.439Z,8.18
2018-12-19T10:05:39.414Z,8.16
2018-12-19T10:06:39.389Z,8.23
2018-12-19T10:07:39.365Z,8.20
2018-12-19T10:08:39.339Z,8.18
2018-12-19T10:09:39.315Z,8.28
2018-12-19T10:10:39.293Z,8.31
2018-12-19T10:11:39.266Z,8.39
2018-12-19T10:12:39.242Z,8.44
2018-12-19T10:13:39.220Z,8.42
2018-12-19T10:14:39.193Z,8.50
2018-12-19T10:15:39.170Z,8.49
2018-12-19T10:16:39.146Z,8.57
2018-12-19T10:17:41.035Z,8.53
2018-12-19T10:18:39.099Z,8.59
2018-12-19T10:19:39.074Z,8.63
2018-12-19T10:20:39.050Z,8.71
2018-12-19T10:21:39.026Z,8.64
2018-12-19T10:22:39.030Z,8.71
2018-12-19T10:23:38.978Z,8.79
2018-12-19T10:24:38.955Z,8.71
2018-12-19T10:25:38.931Z,8.71
2018-12-19T10:26:38.909Z,8.72
2018-12-19T10:27:38.883Z,8.79
2018-12-19T10:28:38.861Z,8.78
2018-12-19T10:29:38.900Z,8.84
2018-12-19T10:30:38.810Z,8.82
2018-12-19T10:31:38.787Z,8.84
2018-12-19T10:32:38.765Z,8.81
2018-12-19T10:33:38.745Z,8.89
2018-12-19T10:34:38.717Z,8.86
2018-12-19T10:35:38.700Z,8.93
2018-12-19T10:36:38.669Z,8.92
2018-12-19T10:37:38.651Z,8.81
2018-12-19T10:38:38.622Z,8.95
2018-12-19T10:39:38.598Z,8.86
2018-12-19T10:40:38.577Z,8.81
2018-12-19T10:41:38.551Z,8.87
2018-12-19T10:42:38.533Z,8.74
2018-12-19T10:43:38.504Z,8.81
2018-12-19T10:44:38.482Z,8.82
2018-12-19T10:45:38.462Z,8.84
2018-12-19T10:46:38.496Z,8.78
2018-12-19T10:47:38.409Z,8.87
2018-12-19T10:48:38.387Z,8.93
2018-12-19T10:49:38.365Z,8.86
2018-12-19T10:50:38.345Z,8.95
2018-12-19T10:51:38.317Z,8.95
2018-12-19T10:52:38.292Z,8.92
2018-12-19T10:53:38.269Z,8.92
2018-12-19T10:54:38.245Z,8.93
2018-12-19T10:55:38.221Z,8.95
2018-12-19T10:56:38.198Z,8.97
2018-12-19T10:57:38.175Z,9.02
2018-12-19T10:58:38.150Z,9.08
2018-12-19T10:59:38.129Z,9.02
2018-12-19T11:00:38.106Z,9.02
2018-12-19T11:01:38.081Z,8.96
2018-12-19T11:02:38.060Z,8.99
2018-12-19T11:03:38.038Z,8.97
2018-12-19T11:04:38.011Z,9.08
2018-12-19T11:05:38.020Z,9.09
2018-12-19T11:06:38.054Z,9.08
2018-12-19T11:07:37.942Z,9.11
2018-12-19T11:08:37.918Z,9.05
2018-12-19T11:09:37.894Z,9.02
2018-12-19T11:10:37.870Z,9.09
2018-12-19T11:11:37.847Z,9.12
2018-12-19T11:12:37.874Z,9.05
2018-12-19T11:13:37.799Z,9.11
2018-12-19T11:14:37.775Z,9.18
2018-12-19T11:15:37.752Z,9.19
2018-12-19T11:16:37.729Z,9.16
2018-12-19T11:17:37.739Z,9.22
2018-12-19T11:18:37.681Z,9.15
2018-12-19T11:19:37.670Z,9.22
2018-12-19T11:20:37.635Z,9.26
2018-12-19T11:21:37.614Z,9.16
2018-12-19T11:22:37.587Z,9.22
2018-12-19T11:23:37.566Z,9.24
2018-12-19T11:24:37.541Z,9.24
2018-12-19T11:25:37.526Z,9.21
2018-12-19T11:26:37.498Z,9.19
2018-12-19T11:27:37.471Z,9.19
2018-12-19T11:28:37.449Z,9.19
2018-12-19T11:29:37.426Z,9.24
2018-12-19T11:30:37.401Z,9.22
2018-12-19T11:31:37.381Z,9.22
2018-12-19T11:32:37.358Z,9.27
2018-12-19T11:33:37.335Z,9.30
2018-12-19T11:34:37.312Z,9.29
2018-12-19T11:35:37.285Z,9.22
2018-12-19T11:36:37.266Z,9.26
2018-12-19T11:37:37.244Z,9.19
2018-12-19T11:38:37.219Z,9.26
2018-12-19T11:39:37.192Z,9.27
2018-12-19T11:40:37.172Z,9.18
2018-12-19T11:41:39.149Z,9.22
2018-12-19T11:42:37.121Z,9.26
2018-12-19T11:43:37.098Z,9.34
2018-12-19T11:44:37.075Z,9.21
2018-12-19T11:45:37.052Z,9.27
2018-12-19T11:46:37.028Z,9.27
2018-12-19T11:47:37.005Z,9.33
2018-12-19T11:48:36.982Z,9.34
2018-12-19T11:49:36.958Z,9.37
2018-12-19T11:50:36.936Z,9.37
2018-12-19T11:51:36.911Z,9.37
2018-12-19T11:52:36.890Z,9.37
2018-12-19T11:53:36.865Z,9.42
2018-12-19T11:54:36.840Z,9.40
2018-12-19T11:55:36.820Z,9.45
2018-12-19T11:56:36.796Z,9.44
2018-12-19T11:57:36.774Z,9.45
2018-12-19T11:58:36.754Z,9.45
2018-12-19T11:59:36.726Z,9.45
2018-12-19T12:00:36.716Z,9.42
2018-12-19T12:01:41.321Z,9.39
2018-12-19T12:02:36.658Z,9.39
2018-12-19T12:03:36.635Z,9.37
2018-12-19T12:04:36.611Z,9.34
2018-12-19T12:05:36.589Z,9.42
2018-12-19T12:06:36.565Z,9.44
2018-12-19T12:07:36.545Z,9.47
2018-12-19T12:08:36.520Z,9.44
2018-12-19T12:09:36.498Z,9.49
2018-12-19T12:10:36.942Z,9.52
2018-12-19T12:11:36.450Z,9.54
2018-12-19T12:12:36.428Z,9.52
2018-12-19T12:13:36.406Z,9.44
2018-12-19T12:14:36.380Z,9.48
2018-12-19T12:15:36.358Z,9.55
2018-12-19T12:16:36.337Z,9.51
2018-12-19T12:17:36.313Z,9.47
2018-12-19T12:18:36.288Z,9.48
2018-12-19T12:19:36.266Z,9.52
2018-12-19T12:20:36.247Z,9.52
2018-12-19T12:21:36.219Z,9.58
2018-12-19T12:22:36.205Z,9.56
2018-12-19T12:23:36.174Z,9.52
2018-12-19T12:24:36.153Z,9.42
2018-12-19T12:25:36.135Z,9.59
2018-12-19T12:26:36.105Z,9.55
2018-12-19T12:27:36.085Z,9.54
2018-12-19T12:28:36.063Z,9.52
2018-12-19T12:29:36.038Z,9.55
2018-12-19T12:30:36.019Z,9.59
2018-12-19T12:31:36.015Z,9.55
2018-12-19T12:32:35.969Z,9.58
2018-12-19T12:33:35.954Z,9.51
2018-12-19T12:34:35.922Z,9.64
2018-12-19T12:35:35.901Z,9.69
2018-12-19T12:36:35.878Z,9.59
2018-12-19T12:37:35.857Z,9.63
2018-12-19T12:38:35.832Z,9.62
2018-12-19T12:39:35.811Z,9.58
2018-12-19T12:40:35.788Z,9.58
2018-12-19T12:41:35.763Z,9.54
2018-12-19T12:42:35.742Z,9.55
2018-12-19T12:43:35.720Z,9.55
2018-12-19T12:44:35.696Z,9.62
2018-12-19T12:45:35.673Z,9.51
2018-12-19T12:46:35.649Z,9.47
2018-12-19T12:47:35.626Z,9.48
2018-12-19T12:48:35.603Z,9.54
2018-12-19T12:49:35.584Z,9.55
2018-12-19T12:50:35.559Z,9.56
2018-12-19T12:51:35.534Z,9.51
2018-12-19T12:52:35.517Z,9.58
2018-12-19T12:53:35.489Z,9.58
2018-12-19T12:54:35.465Z,9.55
2018-12-19T12:55:35.450Z,9.56
2018-12-19T12:56:35.420Z,9.47
2018-12-19T12:57:35.427Z,9.55
2018-12-19T12:58:35.375Z,9.44
2018-12-19T12:59:35.351Z,9.48
2018-12-19T13:00:35.330Z,9.56
2018-12-19T13:01:35.307Z,9.44
2018-12-19T13:02:35.287Z,9.54
2018-12-19T13:03:35.259Z,9.49
2018-12-19T13:04:35.237Z,9.48
2018-12-19T13:05:35.215Z,9.54
2018-12-19T13:06:35.192Z,9.47
2018-12-19T13:07:35.168Z,9.45
2018-12-19T13:08:35.145Z,9.51
2018-12-19T13:09:35.137Z,9.47
2018-12-19T13:10:36.347Z,9.49
2018-12-19T13:11:35.077Z,9.47
2018-12-19T13:12:35.055Z,9.52
2018-12-19T13:13:35.032Z,9.40
2018-12-19T13:14:35.008Z,9.37
2018-12-19T13:15:34.986Z,9.45
2018-12-19T13:16:34.969Z,9.45
2018-12-19T13:17:34.941Z,9.47
2018-12-19T13:18:34.916Z,9.47